AS747 VIDP-VIDP
Flight info
| Callsign | AS747 |
|---|---|
| Flight time | N/A |
| Altitude | 6000 |
| Route | STUDENTPILOTONTRAINING |
| Aircraft | B744/H-VGDW/C |
Departure
| Time | 2026-04-27 06:05 |
|---|---|
| Airport | Indira Gandhi International Airport (VIDP) |
Arrival
| Time | N/A |
|---|---|
| Airport | Indira Gandhi International Airport (VIDP) |
| Time | Latitude | Longitude | Altitude | Speed | Heading |
|---|---|---|---|---|---|
| 2026-04-27 06:01 | 28.56619 | 77.08951 | 744 ft | 0 kts | 104° |
| 2026-04-27 06:04 | 28.56613 | 77.08977 | 743 ft | 11 kts | 104° |
| 2026-04-27 06:04 | 28.56535 | 77.09314 | 749 ft | 87 kts | 104° |
| 2026-04-27 06:05 | 28.56307 | 77.10303 | 766 ft | 169 kts | 104° |
| 2026-04-27 06:05 | 28.55987 | 77.11789 | 1123 ft | 211 kts | 100° |
| 2026-04-27 06:05 | 28.55959 | 77.13598 | 1348 ft | 244 kts | 85° |
| 2026-04-27 06:05 | 28.56176 | 77.15595 | 1736 ft | 263 kts | 79° |
| 2026-04-27 06:06 | 28.56404 | 77.17733 | 1838 ft | 285 kts | 83° |
| 2026-04-27 06:06 | 28.56609 | 77.20106 | 1562 ft | 318 kts | 84° |
| 2026-04-27 06:06 | 28.56878 | 77.22661 | 1855 ft | 326 kts | 78° |
| 2026-04-27 06:06 | 28.57754 | 77.25029 | 2283 ft | 330 kts | 49° |
| 2026-04-27 06:07 | 28.59757 | 77.25928 | 3006 ft | 317 kts | 7° |
| 2026-04-27 06:07 | 28.61594 | 77.25029 | 3323 ft | 313 kts | 285° |
| 2026-04-27 06:07 | 28.60934 | 77.22660 | 2623 ft | 351 kts | 227° |
| 2026-04-27 06:07 | 28.58917 | 77.20974 | 2485 ft | 372 kts | 204° |
| 2026-04-27 06:08 | 28.58439 | 77.20749 | 2470 ft | 376 kts | 200° |
| 2026-04-27 06:08 | 28.57843 | 77.20518 | 2489 ft | 378 kts | 195° |
| 2026-04-27 06:09 | 28.56751 | 77.20359 | 3000 ft | 363 kts | 177° |
| 2026-04-27 06:10 | 28.56129 | 77.20447 | 3407 ft | 354 kts | 166° |
| 2026-04-27 06:11 | 28.54336 | 77.22058 | 4592 ft | 332 kts | 112° |
| 2026-04-27 06:11 | 28.54351 | 77.24640 | 4041 ft | 344 kts | 72° |
| 2026-04-27 06:11 | 28.55149 | 77.27277 | 3426 ft | 358 kts | 69° |
| 2026-04-27 06:11 | 28.55361 | 77.27961 | 3197 ft | 365 kts | 70° |
| 2026-04-27 06:12 | 28.56204 | 77.30549 | 2675 ft | 367 kts | 68° |
| 2026-04-27 06:12 | 28.57173 | 77.33270 | 1919 ft | 371 kts | 67° |
| 2026-04-27 06:12 | 28.58407 | 77.35691 | 2015 ft | 348 kts | 50° |
| 2026-04-27 06:13 | 28.59933 | 77.37793 | 1416 ft | 347 kts | 63° |
| 2026-04-27 06:13 | 28.59841 | 77.40380 | 1939 ft | 347 kts | 129° |
| 2026-04-27 06:13 | 28.57572 | 77.41246 | 1858 ft | 397 kts | 197° |
| 2026-04-27 06:13 | 28.55271 | 77.39061 | 1508 ft | 440 kts | 232° |
| 2026-04-27 06:14 | 28.53635 | 77.36374 | 3989 ft | 386 kts | 245° |
| 2026-04-27 06:14 | 28.53445 | 77.34066 | 4258 ft | 354 kts | 281° |
| 2026-04-27 06:14 | 28.53924 | 77.31568 | 4306 ft | 306 kts | 280° |
| 2026-04-27 06:14 | 28.54270 | 77.29359 | 4351 ft | 263 kts | 281° |
| 2026-04-27 06:15 | 28.54561 | 77.27613 | 4433 ft | 229 kts | 281° |
| 2026-04-27 06:15 | 28.55283 | 77.26173 | 3969 ft | 217 kts | 332° |
| 2026-04-27 06:15 | 28.56686 | 77.26324 | 3575 ft | 211 kts | 47° |
| 2026-04-27 06:15 | 28.57196 | 77.27856 | 3274 ft | 219 kts | 87° |
| 2026-04-27 06:16 | 28.57239 | 77.29694 | 2394 ft | 249 kts | 91° |
| 2026-04-27 06:16 | 28.57548 | 77.31817 | 1517 ft | 294 kts | 63° |
| 2026-04-27 06:16 | 28.58641 | 77.33712 | 1496 ft | 280 kts | 47° |
| 2026-04-27 06:16 | 28.59699 | 77.35041 | 1455 ft | 270 kts | 58° |
| 2026-04-27 06:17 | 28.60111 | 77.35987 | 1442 ft | 265 kts | 68° |
| 2026-04-27 06:17 | 28.60733 | 77.37935 | 1370 ft | 257 kts | 72° |
| 2026-04-27 06:17 | 28.61209 | 77.39905 | 1087 ft | 258 kts | 79° |
| 2026-04-27 06:17 | 28.62063 | 77.41445 | 1269 ft | 253 kts | 12° |
| 2026-04-27 06:18 | 28.63628 | 77.40596 | 1193 ft | 299 kts | 284° |
| 2026-04-27 06:18 | 28.62978 | 77.38238 | 1274 ft | 351 kts | 231° |
| 2026-04-27 06:18 | 28.61212 | 77.35991 | 1112 ft | 411 kts | 227° |
| 2026-04-27 06:18 | 28.59092 | 77.33906 | 1452 ft | 389 kts | 201° |
| 2026-04-27 06:19 | 28.56601 | 77.34254 | 1085 ft | 375 kts | 144° |
| 2026-04-27 06:19 | 28.54806 | 77.36450 | 1519 ft | 378 kts | 126° |
| 2026-04-27 06:19 | 28.53380 | 77.38926 | 2833 ft | 354 kts | 120° |
| 2026-04-27 06:19 | 28.52583 | 77.41369 | 3257 ft | 322 kts | 77° |
| 2026-04-27 06:20 | 28.54265 | 77.42908 | 1176 ft | 363 kts | 11° |
| 2026-04-27 06:20 | 28.56643 | 77.42792 | 1773 ft | 327 kts | 324° |
| 2026-04-27 06:20 | 28.57357 | 77.40351 | 1734 ft | 372 kts | 255° |
| 2026-04-27 06:20 | 28.56006 | 77.37726 | 1720 ft | 393 kts | 227° |
| 2026-04-27 06:21 | 28.54019 | 77.35803 | 2169 ft | 360 kts | 223° |
| 2026-04-27 06:21 | 28.52743 | 77.33522 | 2666 ft | 328 kts | 249° |
| 2026-04-27 06:21 | 28.52280 | 77.31094 | 2977 ft | 305 kts | 261° |
| 2026-04-27 06:21 | 28.52851 | 77.29047 | 3004 ft | 284 kts | 340° |
| 2026-04-27 06:22 | 28.54540 | 77.29460 | 2587 ft | 284 kts | 40° |
| 2026-04-27 06:23 | 28.55609 | 77.30601 | 1765 ft | 297 kts | 45° |
| 2026-04-27 06:23 | 28.57069 | 77.32349 | 1291 ft | 305 kts | 48° |
| 2026-04-27 06:23 | 28.58019 | 77.33614 | 1090 ft | 305 kts | 50° |
| 2026-04-27 06:24 | 28.58825 | 77.34621 | 1293 ft | 288 kts | 43° |
| 2026-04-27 06:24 | 28.60245 | 77.35715 | 1351 ft | 274 kts | 32° |
| 2026-04-27 06:24 | 28.61054 | 77.36309 | 1226 ft | 273 kts | 35° |
| 2026-04-27 06:24 | 28.62596 | 77.37563 | 985 ft | 273 kts | 35° |
| 2026-04-27 06:25 | 28.63970 | 77.38954 | 995 ft | 256 kts | 71° |
| 2026-04-27 06:25 | 28.63444 | 77.40689 | 870 ft | 279 kts | 157° |
| 2026-04-27 06:25 | 28.61429 | 77.41060 | 1534 ft | 303 kts | 195° |
| 2026-04-27 06:25 | 28.60085 | 77.39208 | 1540 ft | 356 kts | 264° |
| 2026-04-27 06:26 | 28.59865 | 77.36312 | 2672 ft | 374 kts | 258° |
| 2026-04-27 06:26 | 28.58367 | 77.33990 | 2812 ft | 378 kts | 204° |
| 2026-04-27 06:26 | 28.55831 | 77.34192 | 1722 ft | 386 kts | 146° |
| 2026-04-27 06:26 | 28.54522 | 77.36703 | 1702 ft | 363 kts | 92° |
| 2026-04-27 06:27 | 28.55521 | 77.38983 | 1983 ft | 332 kts | 25° |
| 2026-04-27 06:27 | 28.57646 | 77.39038 | 2301 ft | 295 kts | 339° |
| 2026-04-27 06:27 | 28.59204 | 77.37689 | 2214 ft | 280 kts | 311° |
| 2026-04-27 06:27 | 28.60273 | 77.35842 | 1959 ft | 271 kts | 297° |
| 2026-04-27 06:28 | 28.60467 | 77.35379 | 1995 ft | 265 kts | 291° |
| 2026-04-27 06:28 | 28.60334 | 77.33725 | 2142 ft | 239 kts | 222° |
| 2026-04-27 06:29 | 28.58914 | 77.32510 | 2163 ft | 275 kts | 213° |
| 2026-04-27 06:29 | 28.57302 | 77.31366 | 2304 ft | 266 kts | 211° |
| 2026-04-27 06:29 | 28.55703 | 77.30405 | 2499 ft | 258 kts | 208° |
| 2026-04-27 06:29 | 28.54264 | 77.29308 | 3094 ft | 239 kts | 217° |
| 2026-04-27 06:30 | 28.53492 | 77.28590 | 3528 ft | 219 kts | 222° |
| 2026-04-27 06:30 | 28.52993 | 77.28016 | 3729 ft | 213 kts | 227° |
| 2026-04-27 06:30 | 28.52114 | 77.26683 | 3923 ft | 209 kts | 238° |
| 2026-04-27 06:31 | 28.51366 | 77.25250 | 3979 ft | 214 kts | 243° |
| 2026-04-27 06:31 | 28.51010 | 77.23582 | 3837 ft | 226 kts | 269° |
| 2026-04-27 06:31 | 28.51207 | 77.21812 | 3687 ft | 223 kts | 283° |
| 2026-04-27 06:31 | 28.51642 | 77.20140 | 3041 ft | 234 kts | 288° |
| 2026-04-27 06:32 | 28.52123 | 77.18434 | 2615 ft | 211 kts | 287° |
| 2026-04-27 06:32 | 28.52496 | 77.16889 | 2191 ft | 195 kts | 284° |
| 2026-04-27 06:32 | 28.52806 | 77.15437 | 1796 ft | 185 kts | 282° |
| 2026-04-27 06:32 | 28.53097 | 77.14079 | 1571 ft | 170 kts | 283° |
| 2026-04-27 06:33 | 28.53367 | 77.12801 | 1352 ft | 167 kts | 282° |
| 2026-04-27 06:33 | 28.53638 | 77.11513 | 1007 ft | 169 kts | 284° |
| 2026-04-27 06:33 | 28.53925 | 77.10244 | 823 ft | 166 kts | 284° |
| 2026-04-27 06:33 | 28.54217 | 77.08876 | 762 ft | 180 kts | 283° |
| 2026-04-27 06:34 | 28.54505 | 77.07535 | 799 ft | 176 kts | 284° |
| 2026-04-27 06:34 | 28.54812 | 77.06166 | 1300 ft | 179 kts | 284° |
| 2026-04-27 06:34 | 28.55142 | 77.04804 | 1932 ft | 184 kts | 287° |
| 2026-04-27 06:34 | 28.55757 | 77.03395 | 1957 ft | 214 kts | 301° |
| 2026-04-27 06:35 | 28.56608 | 77.01897 | 1868 ft | 237 kts | 304° |
| 2026-04-27 06:35 | 28.57521 | 77.00326 | 2314 ft | 227 kts | 301° |
| 2026-04-27 06:35 | 28.58356 | 76.98888 | 3139 ft | 210 kts | 303° |
| 2026-04-27 06:35 | 28.58385 | 76.98838 | 3168 ft | 210 kts | 303° |